Portada
METAR-TAF:

METAR-TAF

Aeroports :

Banjarmasin, Indonèsia

latitud: 03-26-32S, longitud: 114-45-45E, altitud: 20 m

Observació

L'informe es va fer fa 42 minuts, a les 13:30 UTC
Vent 3 kt del Est
Temperatura 26°C
Humitat 100%
Pressió 1008 hPa
Visibilitat: 9000 m
Núvols disperses a una alçada de 19000 ft

METAR: WAOO 141330Z AUTO 08003KT 9000 SCT190 26/26 Q1008

Hora: 21:12 (14:12 UTC)

Pronòstic

L'informe es va fer fa 3 hores i 12 minuts, a les 11:00 UTC
Pronòstic vàlid del 14 a les 12 UTC al 15 a les 12 UTC
Vent 5 kt del Sud
Visibilitat 10 km o més
Núvols disperses a una alçada de 1800 ft

TAF: WAOO 141100Z 1412/1512 18005KT 9999 SCT018

Observacions i pronòstics meteorològics de més de 4000 aeroports (METAR i TAF).

Les estacions disponibles són els punts grocs i vermells al mapa.

Posi el ratolí al punt desitjat per veure el nom de l'estació.

Feu clic per veure les observacions i els pronòstics meteorològics.

Per canviar el mapa: feu clic els botons verds amb una creu de color negre per apropar; al botó verd amb un guió per allunyar la imatge; o en les fletxes verdes per a mapes adjacents.


METAR-TAF: